sensor_id;sensor_type;location;lat;lon;timestamp;pressure;altitude;pressure_sealevel;temperature;humidity
75409;BME280;63979;55.644;37.734;2023-12-28T00:03:24;99304.91;;;0.05;67.79
75409;BME280;63979;55.644;37.734;2023-12-28T00:08:25;99347.03;;;0.25;68.20
75409;BME280;63979;55.644;37.734;2023-12-28T00:13:26;99352.06;;;0.31;68.13
75409;BME280;63979;55.644;37.734;2023-12-28T00:18:27;99351.66;;;0.19;68.27
75409;BME280;63979;55.644;37.734;2023-12-28T00:23:28;99359.50;;;0.19;68.56
75409;BME280;63979;55.644;37.734;2023-12-28T00:28:28;99374.47;;;0.17;68.55
75409;BME280;63979;55.644;37.734;2023-12-28T00:33:29;99374.94;;;0.03;68.50
75409;BME280;63979;55.644;37.734;2023-12-28T00:38:30;99371.41;;;0.04;67.82
75409;BME280;63979;55.644;37.734;2023-12-28T00:43:31;99380.88;;;0.08;68.11
75409;BME280;63979;55.644;37.734;2023-12-28T00:48:32;99375.78;;;0.04;68.63
75409;BME280;63979;55.644;37.734;2023-12-28T00:53:32;99363.81;;;-0.05;68.63
75409;BME280;63979;55.644;37.734;2023-12-28T00:58:33;99385.53;;;0.00;68.98
75409;BME280;63979;55.644;37.734;2023-12-28T01:03:35;99380.56;;;-0.09;68.86
75409;BME280;63979;55.644;37.734;2023-12-28T01:08:35;99384.91;;;-0.08;69.32
75409;BME280;63979;55.644;37.734;2023-12-28T01:13:36;99391.84;;;-0.07;68.71
75409;BME280;63979;55.644;37.734;2023-12-28T01:18:37;99397.25;;;-0.12;68.86
75409;BME280;63979;55.644;37.734;2023-12-28T01:23:38;99406.53;;;-0.02;69.05
75409;BME280;63979;55.644;37.734;2023-12-28T01:28:39;99409.78;;;0.07;68.66
75409;BME280;63979;55.644;37.734;2023-12-28T01:33:39;99405.69;;;-0.02;69.03
75409;BME280;63979;55.644;37.734;2023-12-28T01:38:40;99425.81;;;-0.03;69.15
75409;BME280;63979;55.644;37.734;2023-12-28T01:43:42;99416.53;;;0.14;68.64
75409;BME280;63979;55.644;37.734;2023-12-28T01:48:45;99415.25;;;-0.01;69.49
75409;BME280;63979;55.644;37.734;2023-12-28T01:53:48;99407.91;;;-0.16;69.54
75409;BME280;63979;55.644;37.734;2023-12-28T01:58:50;99419.63;;;0.00;69.36
75409;BME280;63979;55.644;37.734;2023-12-28T02:03:53;99439.72;;;-0.01;69.92
75409;BME280;63979;55.644;37.734;2023-12-28T02:08:55;99436.13;;;0.04;69.66
75409;BME280;63979;55.644;37.734;2023-12-28T02:13:56;99439.72;;;-0.01;70.41
75409;BME280;63979;55.644;37.734;2023-12-28T02:19:00;99452.53;;;0.10;70.23
75409;BME280;63979;55.644;37.734;2023-12-28T02:24:04;99457.22;;;0.01;70.75
75409;BME280;63979;55.644;37.734;2023-12-28T02:29:05;99424.59;;;-0.19;70.79
75409;BME280;63979;55.644;37.734;2023-12-28T02:34:15;99448.50;;;-0.02;70.26
75409;BME280;63979;55.644;37.734;2023-12-28T02:39:20;99442.28;;;0.03;70.49
75409;BME280;63979;55.644;37.734;2023-12-28T02:44:23;99428.97;;;-0.19;71.30
75409;BME280;63979;55.644;37.734;2023-12-28T02:49:24;99461.66;;;-0.03;71.31
75409;BME280;63979;55.644;37.734;2023-12-28T02:54:24;99444.97;;;0.01;71.54
75409;BME280;63979;55.644;37.734;2023-12-28T02:59:25;99464.03;;;0.06;71.69
75409;BME280;63979;55.644;37.734;2023-12-28T03:04:26;99456.81;;;0.13;71.13
75409;BME280;63979;55.644;37.734;2023-12-28T03:09:27;99471.50;;;0.18;71.17
75409;BME280;63979;55.644;37.734;2023-12-28T03:14:28;99476.94;;;0.12;71.14
75409;BME280;63979;55.644;37.734;2023-12-28T03:19:29;99474.72;;;0.00;70.92
75409;BME280;63979;55.644;37.734;2023-12-28T03:24:29;99484.13;;;0.07;70.79
75409;BME280;63979;55.644;37.734;2023-12-28T03:29:30;99487.44;;;0.12;70.56
75409;BME280;63979;55.644;37.734;2023-12-28T03:34:31;99488.25;;;0.14;70.26
75409;BME280;63979;55.644;37.734;2023-12-28T03:39:33;99494.44;;;0.40;70.38
75409;BME280;63979;55.644;37.734;2023-12-28T03:44:34;99453.19;;;0.17;70.15
75409;BME280;63979;55.644;37.734;2023-12-28T03:49:35;99490.97;;;0.11;69.47
75409;BME280;63979;55.644;37.734;2023-12-28T03:54:36;99505.00;;;0.10;70.43
75409;BME280;63979;55.644;37.734;2023-12-28T03:59:37;99489.63;;;-0.02;69.90
75409;BME280;63979;55.644;37.734;2023-12-28T04:04:38;99507.22;;;0.22;69.96
75409;BME280;63979;55.644;37.734;2023-12-28T04:09:39;99501.72;;;0.30;70.08
75409;BME280;63979;55.644;37.734;2023-12-28T04:14:40;99508.75;;;0.29;69.12
75409;BME280;63979;55.644;37.734;2023-12-28T04:19:41;99514.22;;;0.50;68.84
75409;BME280;63979;55.644;37.734;2023-12-28T04:24:42;99517.34;;;0.61;68.90
75409;BME280;63979;55.644;37.734;2023-12-28T04:29:43;99528.06;;;0.55;68.15
75409;BME280;63979;55.644;37.734;2023-12-28T04:34:43;99515.34;;;0.43;68.53
75409;BME280;63979;55.644;37.734;2023-12-28T04:39:44;99525.44;;;0.55;68.04
75409;BME280;63979;55.644;37.734;2023-12-28T04:44:45;99526.72;;;0.68;68.04
75409;BME280;63979;55.644;37.734;2023-12-28T04:49:46;99531.59;;;0.54;67.99
75409;BME280;63979;55.644;37.734;2023-12-28T04:54:47;99523.66;;;0.55;67.70
75409;BME280;63979;55.644;37.734;2023-12-28T04:59:48;99530.09;;;0.47;68.50
75409;BME280;63979;55.644;37.734;2023-12-28T05:04:49;99538.75;;;0.49;68.11
75409;BME280;63979;55.644;37.734;2023-12-28T05:09:50;99513.94;;;0.31;67.86
75409;BME280;63979;55.644;37.734;2023-12-28T05:14:51;99551.94;;;0.47;67.59
75409;BME280;63979;55.644;37.734;2023-12-28T05:19:52;99547.84;;;0.39;67.44
75409;BME280;63979;55.644;37.734;2023-12-28T05:24:53;99550.47;;;0.39;68.29
75409;BME280;63979;55.644;37.734;2023-12-28T05:29:54;99567.94;;;0.40;67.85
75409;BME280;63979;55.644;37.734;2023-12-28T05:34:55;99570.16;;;0.52;67.66
75409;BME280;63979;55.644;37.734;2023-12-28T05:39:56;99580.25;;;0.38;67.78
75409;BME280;63979;55.644;37.734;2023-12-28T05:44:58;99579.75;;;0.53;67.82
75409;BME280;63979;55.644;37.734;2023-12-28T05:49:59;99585.66;;;0.59;67.54
75409;BME280;63979;55.644;37.734;2023-12-28T05:54:59;99538.78;;;0.21;67.32
75409;BME280;63979;55.644;37.734;2023-12-28T06:00:00;99600.16;;;0.45;67.86
75409;BME280;63979;55.644;37.734;2023-12-28T06:05:03;99606.88;;;0.53;67.83
75409;BME280;63979;55.644;37.734;2023-12-28T06:10:05;99618.53;;;0.45;67.97
75409;BME280;63979;55.644;37.734;2023-12-28T06:15:06;99620.06;;;0.52;67.70
75409;BME280;63979;55.644;37.734;2023-12-28T06:20:08;99619.91;;;0.56;67.74
75409;BME280;63979;55.644;37.734;2023-12-28T06:25:11;99639.53;;;0.45;67.66
75409;BME280;63979;55.644;37.734;2023-12-28T06:30:13;99651.41;;;0.56;67.32
75409;BME280;63979;55.644;37.734;2023-12-28T06:35:14;99628.22;;;0.43;67.84
75409;BME280;63979;55.644;37.734;2023-12-28T06:40:14;99649.13;;;0.46;67.14
75409;BME280;63979;55.644;37.734;2023-12-28T06:45:15;99635.09;;;0.47;67.58
75409;BME280;63979;55.644;37.734;2023-12-28T06:50:16;99676.81;;;0.56;67.20
75409;BME280;63979;55.644;37.734;2023-12-28T06:55:17;99680.78;;;0.69;67.26
75409;BME280;63979;55.644;37.734;2023-12-28T07:00:18;99684.88;;;0.79;66.68
75409;BME280;63979;55.644;37.734;2023-12-28T07:05:18;99689.88;;;0.87;66.34
75409;BME280;63979;55.644;37.734;2023-12-28T07:10:19;99688.13;;;1.14;65.25
75409;BME280;63979;55.644;37.734;2023-12-28T07:15:20;99704.22;;;1.03;65.23
75409;BME280;63979;55.644;37.734;2023-12-28T07:20:21;99707.22;;;0.92;65.65
75409;BME280;63979;55.644;37.734;2023-12-28T07:25:22;99724.53;;;1.26;64.46
75409;BME280;63979;55.644;37.734;2023-12-28T07:30:23;99727.78;;;1.34;64.15
75409;BME280;63979;55.644;37.734;2023-12-28T07:35:24;99689.00;;;0.86;64.69
75409;BME280;63979;55.644;37.734;2023-12-28T07:40:25;99718.28;;;1.02;65.03
75409;BME280;63979;55.644;37.734;2023-12-28T07:45:26;99732.78;;;0.87;65.38
75409;BME280;63979;55.644;37.734;2023-12-28T07:50:26;99731.97;;;1.13;65.34
75409;BME280;63979;55.644;37.734;2023-12-28T07:55:28;99735.97;;;1.25;64.73
75409;BME280;63979;55.644;37.734;2023-12-28T08:00:29;99735.59;;;1.09;64.82
75409;BME280;63979;55.644;37.734;2023-12-28T08:05:29;99752.78;;;1.19;64.58
75409;BME280;63979;55.644;37.734;2023-12-28T08:10:30;99742.28;;;1.19;64.61
75409;BME280;63979;55.644;37.734;2023-12-28T08:15:31;99761.56;;;1.46;64.02
75409;BME280;63979;55.644;37.734;2023-12-28T08:20:32;99757.22;;;1.45;63.60
75409;BME280;63979;55.644;37.734;2023-12-28T08:25:33;99766.28;;;1.35;62.98
75409;BME280;63979;55.644;37.734;2023-12-28T08:30:34;99764.09;;;1.49;62.42
75409;BME280;63979;55.644;37.734;2023-12-28T08:35:34;99776.84;;;1.62;61.18
75409;BME280;63979;55.644;37.734;2023-12-28T08:40:35;99776.31;;;1.78;59.72
75409;BME280;63979;55.644;37.734;2023-12-28T08:45:37;99783.63;;;1.69;60.32
75409;BME280;63979;55.644;37.734;2023-12-28T08:50:38;99789.34;;;1.81;59.46
75409;BME280;63979;55.644;37.734;2023-12-28T08:55:38;99787.09;;;1.96;59.11
75409;BME280;63979;55.644;37.734;2023-12-28T09:00:39;99796.72;;;1.97;60.06
75409;BME280;63979;55.644;37.734;2023-12-28T09:05:40;99803.66;;;1.73;60.42
75409;BME280;63979;55.644;37.734;2023-12-28T09:10:41;99804.56;;;1.45;60.98
75409;BME280;63979;55.644;37.734;2023-12-28T09:15:43;99800.00;;;1.50;61.53
75409;BME280;63979;55.644;37.734;2023-12-28T09:20:44;99776.41;;;1.21;62.49
75409;BME280;63979;55.644;37.734;2023-12-28T09:25:45;99802.78;;;1.46;62.08
75409;BME280;63979;55.644;37.734;2023-12-28T09:30:46;99798.44;;;1.45;63.20
75409;BME280;63979;55.644;37.734;2023-12-28T09:35:47;99805.84;;;1.32;65.84
75409;BME280;63979;55.644;37.734;2023-12-28T09:40:52;99818.31;;;1.25;65.91
75409;BME280;63979;55.644;37.734;2023-12-28T09:45:55;99821.75;;;1.28;65.66
75409;BME280;63979;55.644;37.734;2023-12-28T09:50:56;99809.75;;;1.19;66.08
75409;BME280;63979;55.644;37.734;2023-12-28T09:55:59;99817.84;;;2.20;61.99
75409;BME280;63979;55.644;37.734;2023-12-28T10:01:03;99824.97;;;2.66;59.13
75409;BME280;63979;55.644;37.734;2023-12-28T10:06:06;99827.41;;;4.47;54.54
75409;BME280;63979;55.644;37.734;2023-12-28T10:11:07;99821.50;;;8.65;42.14
75409;BME280;63979;55.644;37.734;2023-12-28T10:16:09;99808.72;;;10.36;37.70
75409;BME280;63979;55.644;37.734;2023-12-28T10:21:12;99823.00;;;9.54;37.71
75409;BME280;63979;55.644;37.734;2023-12-28T10:26:13;99815.38;;;6.61;42.35
75409;BME280;63979;55.644;37.734;2023-12-28T10:31:14;99825.25;;;5.33;45.38
75409;BME280;63979;55.644;37.734;2023-12-28T10:36:15;99800.13;;;4.26;48.00
75409;BME280;63979;55.644;37.734;2023-12-28T10:41:17;99821.03;;;3.90;49.63
75409;BME280;63979;55.644;37.734;2023-12-28T10:46:26;99819.38;;;3.66;50.65
75409;BME280;63979;55.644;37.734;2023-12-28T10:51:28;99825.69;;;3.18;51.86
75409;BME280;63979;55.644;37.734;2023-12-28T10:56:44;99821.56;;;2.88;52.77
75409;BME280;63979;55.644;37.734;2023-12-28T11:01:47;99820.97;;;2.31;53.67
75409;BME280;63979;55.644;37.734;2023-12-28T11:06:51;99839.09;;;2.15;54.22
75409;BME280;63979;55.644;37.734;2023-12-28T11:11:53;99822.16;;;2.23;54.31
75409;BME280;63979;55.644;37.734;2023-12-28T11:16:55;99817.31;;;2.10;55.22
75409;BME280;63979;55.644;37.734;2023-12-28T11:22:00;99833.00;;;2.13;56.00
75409;BME280;63979;55.644;37.734;2023-12-28T11:27:02;99826.03;;;1.86;56.11
75409;BME280;63979;55.644;37.734;2023-12-28T11:32:05;99833.97;;;1.84;56.86
75409;BME280;63979;55.644;37.734;2023-12-28T11:37:13;99835.22;;;1.73;56.66
75409;BME280;63979;55.644;37.734;2023-12-28T11:42:20;99833.41;;;1.48;56.83
75409;BME280;63979;55.644;37.734;2023-12-28T11:47:23;99844.00;;;1.45;56.94
75409;BME280;63979;55.644;37.734;2023-12-28T11:52:31;99854.84;;;1.35;57.59
75409;BME280;63979;55.644;37.734;2023-12-28T11:57:32;99861.44;;;1.20;58.28
75409;BME280;63979;55.644;37.734;2023-12-28T12:02:33;99859.41;;;0.99;58.92
75409;BME280;63979;55.644;37.734;2023-12-28T12:07:35;99848.69;;;0.77;58.77
75409;BME280;63979;55.644;37.734;2023-12-28T12:12:36;99838.91;;;0.82;57.70
75409;BME280;63979;55.644;37.734;2023-12-28T12:17:38;99876.63;;;0.79;57.02
75409;BME280;63979;55.644;37.734;2023-12-28T12:22:39;99871.28;;;0.82;57.55
75409;BME280;63979;55.644;37.734;2023-12-28T12:27:40;99848.06;;;0.36;58.34
75409;BME280;63979;55.644;37.734;2023-12-28T12:32:41;99875.72;;;0.49;58.10
75409;BME280;63979;55.644;37.734;2023-12-28T12:37:43;99870.94;;;0.31;57.25
75409;BME280;63979;55.644;37.734;2023-12-28T12:42:55;99896.03;;;0.43;56.74
75409;BME280;63979;55.644;37.734;2023-12-28T12:47:57;99869.44;;;0.21;55.82
75409;BME280;63979;55.644;37.734;2023-12-28T12:53:01;99906.56;;;0.41;56.11
75409;BME280;63979;55.644;37.734;2023-12-28T12:58:02;99902.00;;;0.14;56.51
75409;BME280;63979;55.644;37.734;2023-12-28T13:03:07;99910.34;;;0.29;56.58
75409;BME280;63979;55.644;37.734;2023-12-28T13:08:08;99916.06;;;0.11;54.84
75409;BME280;63979;55.644;37.734;2023-12-28T13:13:09;99915.44;;;0.02;53.21
75409;BME280;63979;55.644;37.734;2023-12-28T13:18:10;99914.81;;;-0.10;52.37
75409;BME280;63979;55.644;37.734;2023-12-28T13:23:11;99925.84;;;-0.33;52.18
75409;BME280;63979;55.644;37.734;2023-12-28T13:28:12;99932.94;;;-0.38;52.73
75409;BME280;63979;55.644;37.734;2023-12-28T13:33:14;99931.59;;;-0.55;52.92
75409;BME280;63979;55.644;37.734;2023-12-28T13:38:15;99954.22;;;-0.51;53.53
75409;BME280;63979;55.644;37.734;2023-12-28T13:43:16;99962.41;;;-0.65;54.30
75409;BME280;63979;55.644;37.734;2023-12-28T13:48:16;99955.63;;;-0.77;54.57
75409;BME280;63979;55.644;37.734;2023-12-28T13:53:17;99944.59;;;-0.92;55.23
75409;BME280;63979;55.644;37.734;2023-12-28T13:58:18;99962.03;;;-0.90;55.78
75409;BME280;63979;55.644;37.734;2023-12-28T14:03:19;99951.38;;;-0.82;56.52
75409;BME280;63979;55.644;37.734;2023-12-28T14:08:20;99954.47;;;-0.62;56.38
75409;BME280;63979;55.644;37.734;2023-12-28T14:13:21;99910.56;;;-0.92;56.26
75409;BME280;63979;55.644;37.734;2023-12-28T14:18:22;99942.31;;;-0.66;56.56
75409;BME280;63979;55.644;37.734;2023-12-28T14:23:23;99954.59;;;-0.68;56.20
75409;BME280;63979;55.644;37.734;2023-12-28T14:28:24;99938.00;;;-0.69;56.49
75409;BME280;63979;55.644;37.734;2023-12-28T14:33:27;99936.59;;;-0.85;56.55
75409;BME280;63979;55.644;37.734;2023-12-28T14:38:28;99949.47;;;-0.74;56.47
75409;BME280;63979;55.644;37.734;2023-12-28T14:43:29;99938.00;;;-0.69;55.79
75409;BME280;63979;55.644;37.734;2023-12-28T14:48:30;99929.38;;;-0.75;56.19
75409;BME280;63979;55.644;37.734;2023-12-28T14:53:32;99935.59;;;-0.79;55.49
75409;BME280;63979;55.644;37.734;2023-12-28T14:58:32;99925.03;;;-0.76;55.24
75409;BME280;63979;55.644;37.734;2023-12-28T15:03:33;99915.31;;;-1.13;55.75
75409;BME280;63979;55.644;37.734;2023-12-28T15:08:34;99934.81;;;-0.84;55.92
75409;BME280;63979;55.644;37.734;2023-12-28T15:13:36;99944.53;;;-0.89;55.54
75409;BME280;63979;55.644;37.734;2023-12-28T15:18:37;99889.13;;;-1.13;55.38
75409;BME280;63979;55.644;37.734;2023-12-28T15:23:40;99902.91;;;-1.05;56.55
75409;BME280;63979;55.644;37.734;2023-12-28T15:28:46;99918.84;;;-0.72;54.96
75409;BME280;63979;55.644;37.734;2023-12-28T15:33:47;99919.72;;;-0.73;54.79
75409;BME280;63979;55.644;37.734;2023-12-28T15:38:48;99895.44;;;-0.80;55.57
75409;BME280;63979;55.644;37.734;2023-12-28T15:43:49;99902.34;;;-0.77;55.01
75409;BME280;63979;55.644;37.734;2023-12-28T15:48:50;99903.94;;;-0.70;55.88
75409;BME280;63979;55.644;37.734;2023-12-28T15:53:51;99859.72;;;-0.84;55.55
75409;BME280;63979;55.644;37.734;2023-12-28T15:58:52;99898.50;;;-0.59;55.47
75409;BME280;63979;55.644;37.734;2023-12-28T16:03:53;99903.78;;;-0.61;56.10
75409;BME280;63979;55.644;37.734;2023-12-28T16:08:53;99895.63;;;-0.49;56.15
75409;BME280;63979;55.644;37.734;2023-12-28T16:13:55;99856.16;;;-0.81;56.02
75409;BME280;63979;55.644;37.734;2023-12-28T16:18:56;99889.06;;;-0.68;55.77
75409;BME280;63979;55.644;37.734;2023-12-28T16:23:58;99892.28;;;-0.55;56.07
75409;BME280;63979;55.644;37.734;2023-12-28T16:28:59;99880.53;;;-0.39;55.85
75409;BME280;63979;55.644;37.734;2023-12-28T16:34:03;99884.84;;;-0.37;55.48
75409;BME280;63979;55.644;37.734;2023-12-28T16:39:04;99876.41;;;-0.88;56.80
75409;BME280;63979;55.644;37.734;2023-12-28T16:44:05;99891.53;;;-1.01;58.50
75409;BME280;63979;55.644;37.734;2023-12-28T16:49:07;99899.31;;;-0.98;59.96
75409;BME280;63979;55.644;37.734;2023-12-28T16:54:08;99883.31;;;-1.27;60.66
75409;BME280;63979;55.644;37.734;2023-12-28T16:59:09;99898.81;;;-1.16;60.75
75409;BME280;63979;55.644;37.734;2023-12-28T17:04:10;99902.72;;;-1.37;62.08
75409;BME280;63979;55.644;37.734;2023-12-28T17:09:11;99907.72;;;-1.25;61.41
75409;BME280;63979;55.644;37.734;2023-12-28T17:14:12;99908.75;;;-1.34;60.36
75409;BME280;63979;55.644;37.734;2023-12-28T17:19:13;99865.97;;;-1.33;59.10
75409;BME280;63979;55.644;37.734;2023-12-28T17:24:18;99904.47;;;-0.95;58.48
75409;BME280;63979;55.644;37.734;2023-12-28T17:29:20;99906.81;;;-1.24;58.53
75409;BME280;63979;55.644;37.734;2023-12-28T17:34:22;99904.56;;;-1.44;59.13
75409;BME280;63979;55.644;37.734;2023-12-28T17:39:23;99895.72;;;-1.37;60.37
75409;BME280;63979;55.644;37.734;2023-12-28T17:44:32;99897.63;;;-1.46;60.18
75409;BME280;63979;55.644;37.734;2023-12-28T17:49:39;99828.78;;;-1.50;59.71
75409;BME280;63979;55.644;37.734;2023-12-28T17:54:45;99886.16;;;-1.39;60.12
75409;BME280;63979;55.644;37.734;2023-12-28T17:59:46;99853.50;;;-1.20;59.95
75409;BME280;63979;55.644;37.734;2023-12-28T18:04:47;99864.38;;;-0.97;59.03
75409;BME280;63979;55.644;37.734;2023-12-28T18:09:48;99855.97;;;-1.14;59.60
75409;BME280;63979;55.644;37.734;2023-12-28T18:14:50;99854.53;;;-1.75;60.55
75409;BME280;63979;55.644;37.734;2023-12-28T18:19:51;99854.84;;;-1.90;61.04
75409;BME280;63979;55.644;37.734;2023-12-28T18:24:52;99846.81;;;-1.81;61.09
75409;BME280;63979;55.644;37.734;2023-12-28T18:29:53;99841.00;;;-1.50;60.54
75409;BME280;63979;55.644;37.734;2023-12-28T18:34:53;99846.69;;;-1.75;60.68
75409;BME280;63979;55.644;37.734;2023-12-28T18:39:54;99831.00;;;-1.75;61.94
75409;BME280;63979;55.644;37.734;2023-12-28T18:44:56;99824.88;;;-1.72;61.42
75409;BME280;63979;55.644;37.734;2023-12-28T18:49:57;99818.72;;;-1.70;61.46
75409;BME280;63979;55.644;37.734;2023-12-28T18:54:58;99829.88;;;-1.60;61.34
75409;BME280;63979;55.644;37.734;2023-12-28T19:00:00;99814.84;;;-1.97;62.16
75409;BME280;63979;55.644;37.734;2023-12-28T19:05:01;99811.75;;;-2.20;62.86
75409;BME280;63979;55.644;37.734;2023-12-28T19:10:05;99806.75;;;-1.83;62.04
75409;BME280;63979;55.644;37.734;2023-12-28T19:15:07;99800.78;;;-1.90;61.47
75409;BME280;63979;55.644;37.734;2023-12-28T19:20:09;99802.69;;;-1.99;62.39
75409;BME280;63979;55.644;37.734;2023-12-28T19:25:10;99790.63;;;-2.06;62.26
75409;BME280;63979;55.644;37.734;2023-12-28T19:30:11;99760.00;;;-2.00;62.41
75409;BME280;63979;55.644;37.734;2023-12-28T19:35:13;99748.00;;;-2.11;61.88
75409;BME280;63979;55.644;37.734;2023-12-28T19:40:13;99773.53;;;-2.26;62.86
75409;BME280;63979;55.644;37.734;2023-12-28T19:45:16;99758.88;;;-2.34;63.05
75409;BME280;63979;55.644;37.734;2023-12-28T19:50:17;99779.28;;;-2.05;62.98
75409;BME280;63979;55.644;37.734;2023-12-28T19:55:18;99766.88;;;-1.96;62.07
75409;BME280;63979;55.644;37.734;2023-12-28T20:00:19;99756.09;;;-1.79;62.78
75409;BME280;63979;55.644;37.734;2023-12-28T20:05:20;99748.34;;;-1.83;62.12
75409;BME280;63979;55.644;37.734;2023-12-28T20:10:21;99723.88;;;-2.26;62.32
75409;BME280;63979;55.644;37.734;2023-12-28T20:15:22;99754.59;;;-1.92;62.52
75409;BME280;63979;55.644;37.734;2023-12-28T20:20:24;99759.53;;;-1.77;62.33
75409;BME280;63979;55.644;37.734;2023-12-28T20:25:25;99751.53;;;-1.68;62.20
75409;BME280;63979;55.644;37.734;2023-12-28T20:30:26;99756.38;;;-1.93;63.13
75409;BME280;63979;55.644;37.734;2023-12-28T20:35:28;99764.78;;;-1.78;62.79
75409;BME280;63979;55.644;37.734;2023-12-28T20:40:29;99758.78;;;-1.83;62.85
75409;BME280;63979;55.644;37.734;2023-12-28T20:45:30;99741.44;;;-1.88;63.03
75409;BME280;63979;55.644;37.734;2023-12-28T20:50:31;99727.00;;;-1.64;62.17
75409;BME280;63979;55.644;37.734;2023-12-28T20:55:33;99718.53;;;-1.76;62.97
75409;BME280;63979;55.644;37.734;2023-12-28T21:00:34;99708.03;;;-1.75;63.08
75409;BME280;63979;55.644;37.734;2023-12-28T21:05:36;99706.31;;;-1.76;62.76
75409;BME280;63979;55.644;37.734;2023-12-28T21:10:36;99703.69;;;-1.76;63.24
75409;BME280;63979;55.644;37.734;2023-12-28T21:15:38;99689.03;;;-1.83;63.20
75409;BME280;63979;55.644;37.734;2023-12-28T21:20:39;99696.91;;;-1.84;64.03
75409;BME280;63979;55.644;37.734;2023-12-28T21:25:40;99688.28;;;-1.88;64.21
75409;BME280;63979;55.644;37.734;2023-12-28T21:30:44;99684.13;;;-1.98;64.42
75409;BME280;63979;55.644;37.734;2023-12-28T21:35:45;99658.03;;;-2.01;64.14
75409;BME280;63979;55.644;37.734;2023-12-28T21:40:45;99658.03;;;-2.01;64.13
75409;BME280;63979;55.644;37.734;2023-12-28T21:45:47;99659.00;;;-2.05;64.79
75409;BME280;63979;55.644;37.734;2023-12-28T21:50:49;99671.94;;;-1.99;65.35
75409;BME280;63979;55.644;37.734;2023-12-28T21:55:50;99672.81;;;-1.99;64.60
75409;BME280;63979;55.644;37.734;2023-12-28T22:00:51;99680.81;;;-2.06;65.47
75409;BME280;63979;55.644;37.734;2023-12-28T22:05:52;99664.16;;;-2.02;64.99
75409;BME280;63979;55.644;37.734;2023-12-28T22:10:53;99666.50;;;-1.90;65.43
75409;BME280;63979;55.644;37.734;2023-12-28T22:15:58;99670.25;;;-2.02;65.77
75409;BME280;63979;55.644;37.734;2023-12-28T22:20:59;99639.41;;;-1.86;66.16
75409;BME280;63979;55.644;37.734;2023-12-28T22:26:00;99645.72;;;-1.96;65.97
75409;BME280;63979;55.644;37.734;2023-12-28T22:31:00;99638.75;;;-1.96;66.76
75409;BME280;63979;55.644;37.734;2023-12-28T22:36:05;99633.47;;;-2.36;68.29
75409;BME280;63979;55.644;37.734;2023-12-28T22:41:06;99633.81;;;-2.11;67.33
75409;BME280;63979;55.644;37.734;2023-12-28T22:46:09;99614.94;;;-2.25;68.00
75409;BME280;63979;55.644;37.734;2023-12-28T22:51:10;99619.97;;;-2.16;68.61
75409;BME280;63979;55.644;37.734;2023-12-28T22:56:11;99618.94;;;-2.07;67.88
75409;BME280;63979;55.644;37.734;2023-12-28T23:01:11;99600.63;;;-2.06;68.04
75409;BME280;63979;55.644;37.734;2023-12-28T23:06:14;99600.75;;;-2.13;68.61
75409;BME280;63979;55.644;37.734;2023-12-28T23:11:15;99608.44;;;-2.04;68.33
75409;BME280;63979;55.644;37.734;2023-12-28T23:16:16;99598.22;;;-2.16;68.57
75409;BME280;63979;55.644;37.734;2023-12-28T23:21:18;99561.88;;;-2.29;68.37
75409;BME280;63979;55.644;37.734;2023-12-28T23:26:21;99577.22;;;-2.13;68.19
75409;BME280;63979;55.644;37.734;2023-12-28T23:31:23;99569.38;;;-2.13;68.63
75409;BME280;63979;55.644;37.734;2023-12-28T23:36:24;99541.66;;;-2.21;68.48
75409;BME280;63979;55.644;37.734;2023-12-28T23:41:25;99531.81;;;-2.08;68.62
75409;BME280;63979;55.644;37.734;2023-12-28T23:46:26;99500.97;;;-2.32;68.58
75409;BME280;63979;55.644;37.734;2023-12-28T23:51:27;99547.25;;;-1.97;67.96
75409;BME280;63979;55.644;37.734;2023-12-28T23:56:27;99532.38;;;-1.95;68.00
